Time;durP1;ratioP1;P1;durP2;ratioP2;P2;SDS_P1;SDS_P2;PMS_P1;PMS_P2;Temp;Humidity;BMP_temperature;BMP_pressure;BME280_temperature;BME280_humidity;BME280_pressure;Samples;Min_cycle;Max_cycle;Signal;HPM_P1;HPM_P2
2023/07/06 00:00:37;;;;;;;17.13;10.02;;;;;;;;;;5079368;28;20204;-67
2023/07/06 00:03:03;;;;;;;13.85;10.00;;;;;;;;;;5073968;28;20233;-66
2023/07/06 00:05:29;;;;;;;15.02;10.77;;;;;;;;;;5083966;28;20180;-67
2023/07/06 00:07:56;;;;;;;12.40;9.95;;;;;;;;;;5078784;28;20188;-66
2023/07/06 00:10:24;;;;;;;12.05;10.32;;;;;;;;;;5074356;28;20572;-66
2023/07/06 00:12:50;;;;;;;18.77;10.70;;;;;;;;;;5082805;28;20215;-66
2023/07/06 00:15:15;;;;;;;14.57;10.80;;;;;;;;;;5081037;28;20196;-68
2023/07/06 00:17:41;;;;;;;13.50;11.32;;;;;;;;;;5085291;28;20183;-66
2023/07/06 00:20:10;;;;;;;19.70;11.07;;;;;;;;;;5084937;28;20185;-66
2023/07/06 00:22:36;;;;;;;15.82;11.48;;;;;;;;;;5083757;28;20271;-66
2023/07/06 00:25:02;;;;;;;19.52;12.05;;;;;;;;;;5076794;28;20338;-66
2023/07/06 00:27:29;;;;;;;15.65;11.98;;;;;;;;;;5072166;28;20185;-67
2023/07/06 00:30:08;;;;;;;17.95;10.93;;;;;;;;;;5068629;28;20208;-67
2023/07/06 00:32:33;;;;;;;15.57;11.95;;;;;;;;;;5072146;28;20582;-66
2023/07/06 00:35:00;;;;;;;17.55;12.18;;;;;;;;;;5089180;28;20274;-67
2023/07/06 00:37:26;;;;;;;18.25;11.52;;;;;;;;;;5084842;28;20299;-67
2023/07/06 00:39:52;;;;;;;17.25;11.23;;;;;;;;;;5069167;28;20357;-66
2023/07/06 00:42:19;;;;;;;15.75;11.02;;;;;;;;;;5078170;28;20242;-67
2023/07/06 00:44:57;;;;;;;14.75;11.48;;;;;;;;;;5086464;28;20184;-66
2023/07/06 00:47:36;;;;;;;14.02;11.50;;;;;;;;;;5086053;28;20219;-67
2023/07/06 00:50:23;;;;;;;17.65;11.35;;;;;;;;;;5072354;28;20478;-67
2023/07/06 00:52:58;;;;;;;19.50;12.25;;;;;;;;;;5082864;28;20212;-66
2023/07/06 00:55:28;;;;;;;14.88;10.85;;;;;;;;;;5075331;28;20183;-66
2023/07/06 00:57:57;;;;;;;14.65;11.57;;;;;;;;;;5076894;28;20198;-67
2023/07/06 01:00:23;;;;;;;15.38;11.70;;;;;;;;;;5079265;28;20211;-66
2023/07/06 01:02:55;;;;;;;15.57;12.20;;;;;;;;;;5081140;28;20250;-66
2023/07/06 01:05:23;;;;;;;13.98;10.25;;;;;;;;;;5087910;28;20524;-67
2023/07/06 01:07:51;;;;;;;13.68;10.05;;;;;;;;;;5080982;28;20203;-67
2023/07/06 01:10:18;;;;;;;16.10;11.07;;;;;;;;;;5079992;28;20644;-66
2023/07/06 01:12:43;;;;;;;15.18;11.07;;;;;;;;;;5083646;28;20203;-66
2023/07/06 01:15:09;;;;;;;19.58;11.50;;;;;;;;;;5086829;28;20261;-66
2023/07/06 01:18:02;;;;;;;19.77;11.85;;;;;;;;;;5075012;28;20219;-66
2023/07/06 01:20:47;;;;;;;15.52;11.50;;;;;;;;;;5080766;28;20184;-67
2023/07/06 01:23:44;;;;;;;15.85;10.57;;;;;;;;;;5085296;28;20254;-66
2023/07/06 01:26:47;;;;;;;15.95;10.70;;;;;;;;;;5084894;28;20659;-67
2023/07/06 01:29:36;;;;;;;15.23;11.32;;;;;;;;;;5069812;28;20220;-66
2023/07/06 01:32:06;;;;;;;17.65;11.73;;;;;;;;;;5083500;28;20699;-66
2023/07/06 01:34:57;;;;;;;15.48;11.18;;;;;;;;;;5086221;28;20196;-66
2023/07/06 01:37:37;;;;;;;17.20;11.95;;;;;;;;;;5084483;28;20267;-66
2023/07/06 01:40:09;;;;;;;19.75;12.02;;;;;;;;;;5074622;28;20180;-66
2023/07/06 01:42:36;;;;;;;19.70;12.38;;;;;;;;;;5091645;28;20628;-66
2023/07/06 01:45:07;;;;;;;16.25;11.93;;;;;;;;;;5078632;28;20200;-67
2023/07/06 01:47:37;;;;;;;14.05;11.30;;;;;;;;;;5091709;28;20211;-67
2023/07/06 01:50:05;;;;;;;17.75;11.60;;;;;;;;;;5089175;28;20184;-67
2023/07/06 01:53:00;;;;;;;16.58;11.50;;;;;;;;;;5090289;28;20568;-66
2023/07/06 01:55:43;;;;;;;16.73;11.93;;;;;;;;;;5079754;28;20203;-66
2023/07/06 01:58:17;;;;;;;18.88;11.30;;;;;;;;;;5081619;28;20200;-66
2023/07/06 02:00:48;;;;;;;15.90;11.60;;;;;;;;;;5088068;28;20293;-67
2023/07/06 02:03:15;;;;;;;13.05;10.73;;;;;;;;;;5091647;28;20180;-66
2023/07/06 02:05:41;;;;;;;15.50;10.20;;;;;;;;;;5089527;28;20215;-66
2023/07/06 02:08:10;;;;;;;14.80;11.05;;;;;;;;;;5083349;28;20524;-66
2023/07/06 02:10:35;;;;;;;15.18;11.02;;;;;;;;;;5073136;28;20612;-66
2023/07/06 02:13:03;;;;;;;16.58;11.50;;;;;;;;;;5081512;28;20208;-66
2023/07/06 02:15:30;;;;;;;17.88;10.60;;;;;;;;;;5090347;28;20241;-66
2023/07/06 02:17:56;;;;;;;15.13;10.00;;;;;;;;;;5075819;28;20180;-66
2023/07/06 02:20:22;;;;;;;14.50;10.57;;;;;;;;;;5081063;28;20200;-66
2023/07/06 02:22:47;;;;;;;15.05;11.45;;;;;;;;;;5077488;28;20275;-67
2023/07/06 02:25:13;;;;;;;14.25;10.05;;;;;;;;;;5080290;28;20700;-66
2023/07/06 02:27:39;;;;;;;17.35;11.48;;;;;;;;;;5077596;28;20188;-66
2023/07/06 02:30:05;;;;;;;18.35;11.93;;;;;;;;;;5088424;28;20575;-67
2023/07/06 02:32:32;;;;;;;17.23;12.73;;;;;;;;;;5087762;28;20234;-66
2023/07/06 02:34:58;;;;;;;20.17;12.77;;;;;;;;;;5083910;28;20217;-66
2023/07/06 02:37:23;;;;;;;15.30;11.85;;;;;;;;;;5073496;28;20184;-66
2023/07/06 02:39:50;;;;;;;17.88;12.65;;;;;;;;;;5088295;28;20203;-66
2023/07/06 02:42:16;;;;;;;16.85;12.23;;;;;;;;;;5073666;28;20266;-66
2023/07/06 02:44:43;;;;;;;18.15;12.82;;;;;;;;;;5086334;28;20192;-67
2023/07/06 02:47:09;;;;;;;17.63;12.52;;;;;;;;;;5090067;28;20478;-67
2023/07/06 02:49:34;;;;;;;18.88;12.27;;;;;;;;;;5083056;28;20526;-66
2023/07/06 02:52:00;;;;;;;15.68;11.75;;;;;;;;;;5074301;28;20207;-66
2023/07/06 02:54:26;;;;;;;19.15;15.07;;;;;;;;;;5089010;28;20284;-66
2023/07/06 02:56:51;;;;;;;24.13;13.90;;;;;;;;;;5077138;28;20196;-66
2023/07/06 02:59:17;;;;;;;19.10;13.32;;;;;;;;;;5071419;28;20189;-66
2023/07/06 03:01:42;;;;;;;18.80;13.88;;;;;;;;;;5078090;28;20217;-66
2023/07/06 03:04:10;;;;;;;18.20;12.40;;;;;;;;;;5072494;28;20269;-66
2023/07/06 03:06:37;;;;;;;22.30;15.65;;;;;;;;;;5082649;28;20572;-66
2023/07/06 03:09:03;;;;;;;19.13;13.50;;;;;;;;;;5083564;28;20614;-66
2023/07/06 03:11:30;;;;;;;17.35;13.40;;;;;;;;;;5081655;28;20583;-67
2023/07/06 03:13:56;;;;;;;21.05;14.60;;;;;;;;;;5081014;28;20204;-66
2023/07/06 03:16:21;;;;;;;21.27;12.40;;;;;;;;;;5083093;28;20284;-66
2023/07/06 03:18:47;;;;;;;22.45;13.88;;;;;;;;;;5076210;28;20203;-66
2023/07/06 03:21:12;;;;;;;20.88;14.82;;;;;;;;;;5087770;28;20199;-66
2023/07/06 03:23:37;;;;;;;23.63;14.85;;;;;;;;;;5088297;28;20188;-66
2023/07/06 03:26:03;;;;;;;23.85;15.57;;;;;;;;;;5088624;28;20196;-66
2023/07/06 03:28:29;;;;;;;23.67;16.23;;;;;;;;;;5084534;28;20177;-66
2023/07/06 03:30:58;;;;;;;23.60;16.73;;;;;;;;;;5078677;28;20188;-67
2023/07/06 03:33:24;;;;;;;20.75;14.82;;;;;;;;;;5082047;28;20963;-66
2023/07/06 03:35:54;;;;;;;22.27;16.85;;;;;;;;;;5079539;28;20197;-66
2023/07/06 03:38:21;;;;;;;26.70;16.30;;;;;;;;;;5089137;28;20822;-66
2023/07/06 03:40:50;;;;;;;20.80;14.68;;;;;;;;;;5085237;28;20682;-66
2023/07/06 03:43:16;;;;;;;22.92;15.95;;;;;;;;;;5089371;28;20226;-67
2023/07/06 03:45:42;;;;;;;29.38;16.05;;;;;;;;;;5075118;28;20196;-66
2023/07/06 03:48:07;;;;;;;19.17;13.52;;;;;;;;;;5089699;28;20221;-66
2023/07/06 03:50:34;;;;;;;23.38;15.68;;;;;;;;;;5087358;28;20184;-66
2023/07/06 03:53:00;;;;;;;27.00;16.20;;;;;;;;;;5089703;28;20200;-66
2023/07/06 03:55:26;;;;;;;23.10;16.50;;;;;;;;;;5074876;28;20622;-66
2023/07/06 03:57:52;;;;;;;22.02;15.02;;;;;;;;;;5073011;28;20231;-66
2023/07/06 04:00:22;;;;;;;19.85;13.35;;;;;;;;;;5085199;28;20215;-66
2023/07/06 04:02:49;;;;;;;20.35;13.48;;;;;;;;;;5085416;28;20184;-66
2023/07/06 04:05:17;;;;;;;22.75;15.48;;;;;;;;;;5083794;28;20238;-66
2023/07/06 04:07:44;;;;;;;24.95;15.32;;;;;;;;;;5081019;28;20216;-64
2023/07/06 04:10:10;;;;;;;22.55;13.95;;;;;;;;;;5079023;28;20212;-65
2023/07/06 04:12:37;;;;;;;24.88;17.02;;;;;;;;;;5080253;28;20218;-65
2023/07/06 04:15:06;;;;;;;23.55;16.27;;;;;;;;;;5077497;28;20201;-65
2023/07/06 04:17:32;;;;;;;21.60;14.77;;;;;;;;;;5085630;28;20186;-65
2023/07/06 04:19:58;;;;;;;24.25;15.43;;;;;;;;;;5088917;28;20612;-65
2023/07/06 04:22:23;;;;;;;21.38;15.18;;;;;;;;;;5088021;28;20205;-65
2023/07/06 04:24:49;;;;;;;19.05;13.35;;;;;;;;;;5082073;28;20276;-65
2023/07/06 04:27:14;;;;;;;27.27;15.05;;;;;;;;;;5080398;28;20708;-65
2023/07/06 04:29:40;;;;;;;20.70;14.60;;;;;;;;;;5075165;28;20200;-65
2023/07/06 04:32:06;;;;;;;18.92;12.05;;;;;;;;;;5081660;28;20418;-65
2023/07/06 04:34:31;;;;;;;16.70;12.68;;;;;;;;;;5068273;28;20299;-65
2023/07/06 04:36:57;;;;;;;21.08;13.80;;;;;;;;;;5086290;28;20274;-65
2023/07/06 04:39:22;;;;;;;23.30;14.57;;;;;;;;;;5083497;28;20192;-65
2023/07/06 04:41:48;;;;;;;22.98;14.05;;;;;;;;;;5079593;28;20227;-66
2023/07/06 04:44:15;;;;;;;20.85;12.45;;;;;;;;;;5082425;28;20689;-65
2023/07/06 04:46:42;;;;;;;19.25;12.63;;;;;;;;;;5073811;28;20200;-65
2023/07/06 04:49:07;;;;;;;22.58;13.18;;;;;;;;;;5085518;28;20191;-66
2023/07/06 04:51:35;;;;;;;25.00;13.68;;;;;;;;;;5082830;28;20573;-65
2023/07/06 04:54:01;;;;;;;20.27;12.38;;;;;;;;;;5085629;28;20290;-65
2023/07/06 04:56:27;;;;;;;19.63;11.98;;;;;;;;;;5081970;28;20623;-66
2023/07/06 04:58:53;;;;;;;20.50;12.65;;;;;;;;;;5083257;28;20192;-66
2023/07/06 05:01:19;;;;;;;19.27;11.82;;;;;;;;;;5085590;28;20703;-65
2023/07/06 05:03:45;;;;;;;18.40;11.38;;;;;;;;;;5084843;28;20222;-66
2023/07/06 05:06:12;;;;;;;15.98;10.18;;;;;;;;;;5079645;28;20185;-66
2023/07/06 05:08:39;;;;;;;15.07;9.48;;;;;;;;;;5079900;28;20184;-66
2023/07/06 05:11:05;;;;;;;17.95;10.95;;;;;;;;;;5078937;28;20188;-65
2023/07/06 05:13:31;;;;;;;17.00;10.95;;;;;;;;;;5078357;28;20679;-66
2023/07/06 05:15:57;;;;;;;16.88;10.73;;;;;;;;;;5078068;28;20219;-65
2023/07/06 05:18:22;;;;;;;15.18;10.05;;;;;;;;;;5086270;28;20237;-66
2023/07/06 05:20:49;;;;;;;16.20;9.70;;;;;;;;;;5082938;28;20192;-66
2023/07/06 05:23:17;;;;;;;14.05;9.35;;;;;;;;;;5088514;28;20189;-66
2023/07/06 05:25:42;;;;;;;17.15;9.20;;;;;;;;;;5084448;28;20189;-67
2023/07/06 05:28:10;;;;;;;18.48;9.98;;;;;;;;;;5083230;28;20196;-67
2023/07/06 05:30:37;;;;;;;14.63;8.80;;;;;;;;;;5088903;28;20236;-66
2023/07/06 05:33:02;;;;;;;16.52;9.65;;;;;;;;;;5079224;28;20215;-66
2023/07/06 05:35:28;;;;;;;17.35;9.45;;;;;;;;;;5081336;28;20629;-67
2023/07/06 05:37:54;;;;;;;23.20;10.18;;;;;;;;;;5080248;28;20196;-66
2023/07/06 05:40:19;;;;;;;12.35;8.50;;;;;;;;;;5079255;28;20185;-67
2023/07/06 05:42:45;;;;;;;14.70;8.57;;;;;;;;;;5078662;28;20301;-66
2023/07/06 05:45:10;;;;;;;13.63;8.50;;;;;;;;;;5074806;28;20216;-67
2023/07/06 05:47:36;;;;;;;14.50;8.75;;;;;;;;;;5079867;28;20267;-68
2023/07/06 05:50:01;;;;;;;14.10;7.88;;;;;;;;;;5080762;28;20200;-66
2023/07/06 05:52:27;;;;;;;15.20;7.65;;;;;;;;;;5080030;28;20191;-66
2023/07/06 05:54:53;;;;;;;15.73;8.05;;;;;;;;;;5085137;28;20720;-66
2023/07/06 05:57:19;;;;;;;11.88;7.82;;;;;;;;;;5074422;28;20252;-66
2023/07/06 05:59:46;;;;;;;10.70;7.72;;;;;;;;;;5082032;28;20193;-66
2023/07/06 06:02:16;;;;;;;11.52;7.53;;;;;;;;;;5081239;28;20438;-66
2023/07/06 06:04:42;;;;;;;14.02;7.45;;;;;;;;;;5087354;28;20180;-66
2023/07/06 06:07:09;;;;;;;16.63;9.07;;;;;;;;;;5079451;28;20288;-66
2023/07/06 06:09:35;;;;;;;16.15;7.95;;;;;;;;;;5084003;28;20203;-66
2023/07/06 06:12:04;;;;;;;15.73;7.40;;;;;;;;;;5084518;28;20188;-66
2023/07/06 06:14:30;;;;;;;14.75;7.22;;;;;;;;;;5083020;28;20251;-66
2023/07/06 06:16:56;;;;;;;15.85;6.90;;;;;;;;;;5072789;28;20220;-66
2023/07/06 06:19:21;;;;;;;11.75;7.10;;;;;;;;;;5078061;28;20631;-66
2023/07/06 06:21:49;;;;;;;13.48;7.32;;;;;;;;;;5078629;28;20206;-67
2023/07/06 06:24:15;;;;;;;12.77;6.93;;;;;;;;;;5088868;28;20180;-66
2023/07/06 06:26:42;;;;;;;14.65;6.22;;;;;;;;;;5081185;28;20188;-66
2023/07/06 06:29:09;;;;;;;14.00;6.60;;;;;;;;;;5087302;28;20207;-66
2023/07/06 06:31:36;;;;;;;15.18;6.57;;;;;;;;;;5089741;28;20580;-67
2023/07/06 06:34:01;;;;;;;11.55;6.40;;;;;;;;;;5073887;28;20219;-66
2023/07/06 06:36:26;;;;;;;13.95;6.22;;;;;;;;;;5073226;28;20188;-66
2023/07/06 06:38:52;;;;;;;10.98;5.72;;;;;;;;;;5083291;28;20246;-66
2023/07/06 06:41:17;;;;;;;14.15;6.32;;;;;;;;;;5071037;28;20688;-66
2023/07/06 06:43:44;;;;;;;12.80;6.22;;;;;;;;;;5080338;28;20283;-66
2023/07/06 06:46:11;;;;;;;11.73;5.70;;;;;;;;;;5074256;28;20192;-66
2023/07/06 06:48:37;;;;;;;12.55;6.90;;;;;;;;;;5081374;28;20200;-66
2023/07/06 06:51:10;;;;;;;12.68;6.30;;;;;;;;;;5084167;28;20203;-71
2023/07/06 06:53:39;;;;;;;15.63;6.13;;;;;;;;;;5078541;28;20212;-67
2023/07/06 06:56:05;;;;;;;13.02;6.38;;;;;;;;;;5072272;28;20185;-67
2023/07/06 06:58:30;;;;;;;15.40;5.93;;;;;;;;;;5083199;28;20261;-67
2023/07/06 07:01:00;;;;;;;14.80;6.40;;;;;;;;;;5089573;28;20731;-66
2023/07/06 07:03:28;;;;;;;14.50;6.65;;;;;;;;;;5083807;28;20284;-66
2023/07/06 07:06:13;;;;;;;12.90;6.20;;;;;;;;;;5086001;28;20184;-67
2023/07/06 07:08:49;;;;;;;13.15;6.18;;;;;;;;;;5086761;28;20294;-66
2023/07/06 07:11:14;;;;;;;15.88;7.18;;;;;;;;;;5070573;28;20180;-67
2023/07/06 07:13:40;;;;;;;12.55;7.30;;;;;;;;;;5081145;28;20338;-67
2023/07/06 07:16:06;;;;;;;14.88;7.15;;;;;;;;;;5086250;28;20528;-66
2023/07/06 07:18:33;;;;;;;12.57;7.32;;;;;;;;;;5078854;28;20192;-66
2023/07/06 07:21:01;;;;;;;14.27;6.97;;;;;;;;;;5073002;28;20211;-67
2023/07/06 07:23:35;;;;;;;19.80;8.32;;;;;;;;;;5070336;28;20181;-66
2023/07/06 07:26:03;;;;;;;16.70;7.45;;;;;;;;;;5073393;28;20628;-66
2023/07/06 07:28:29;;;;;;;18.63;7.90;;;;;;;;;;5082034;28;20550;-66
2023/07/06 07:30:56;;;;;;;14.07;7.30;;;;;;;;;;5068707;28;20201;-66
2023/07/06 07:33:22;;;;;;;18.23;7.63;;;;;;;;;;5070228;28;21101;-68
2023/07/06 07:35:48;;;;;;;14.57;7.35;;;;;;;;;;5080576;28;20550;-66
2023/07/06 07:38:16;;;;;;;10.93;7.47;;;;;;;;;;5084981;28;20191;-66
2023/07/06 07:40:52;;;;;;;15.13;6.90;;;;;;;;;;5076887;28;20621;-67
2023/07/06 07:43:17;;;;;;;15.70;8.27;;;;;;;;;;5082190;28;20191;-71
2023/07/06 07:45:43;;;;;;;18.77;7.50;;;;;;;;;;5073606;28;20189;-66
2023/07/06 07:48:08;;;;;;;15.77;7.40;;;;;;;;;;5077928;28;20223;-66
2023/07/06 07:50:33;;;;;;;18.92;7.88;;;;;;;;;;5073624;28;20528;-69
2023/07/06 07:52:59;;;;;;;13.13;7.20;;;;;;;;;;5081025;28;20306;-67
2023/07/06 07:55:24;;;;;;;13.93;6.95;;;;;;;;;;5077860;28;20192;-67
2023/07/06 07:57:49;;;;;;;12.98;7.30;;;;;;;;;;5077998;28;20642;-68
2023/07/06 08:00:15;;;;;;;15.10;7.28;;;;;;;;;;5073626;28;20193;-67
2023/07/06 08:02:40;;;;;;;12.73;6.97;;;;;;;;;;5071602;28;20192;-68
2023/07/06 08:05:09;;;;;;;13.90;7.03;;;;;;;;;;5077131;28;20207;-71
2023/07/06 08:07:34;;;;;;;13.70;7.65;;;;;;;;;;5067793;28;20192;-67
2023/07/06 08:10:00;;;;;;;11.60;7.78;;;;;;;;;;5079658;28;20280;-67
2023/07/06 08:12:25;;;;;;;16.65;8.35;;;;;;;;;;5070850;28;20224;-67
2023/07/06 08:14:51;;;;;;;13.65;7.70;;;;;;;;;;5074775;28;20192;-67
2023/07/06 08:17:16;;;;;;;16.38;7.13;;;;;;;;;;5077010;28;20190;-68
2023/07/06 08:19:42;;;;;;;20.67;7.65;;;;;;;;;;5079238;28;20628;-67
2023/07/06 08:22:07;;;;;;;20.85;8.15;;;;;;;;;;5072159;28;20199;-69
2023/07/06 08:24:32;;;;;;;16.10;8.25;;;;;;;;;;5086131;28;20179;-70
2023/07/06 08:26:58;;;;;;;12.95;7.38;;;;;;;;;;5080499;28;20249;-69
2023/07/06 08:29:24;;;;;;;16.40;7.90;;;;;;;;;;5085421;28;20658;-68
2023/07/06 08:31:50;;;;;;;14.32;7.55;;;;;;;;;;5074006;28;20310;-67
2023/07/06 08:34:16;;;;;;;13.90;7.20;;;;;;;;;;5070322;28;20297;-68
2023/07/06 08:36:43;;;;;;;16.92;7.53;;;;;;;;;;5069224;28;20193;-67
2023/07/06 08:39:08;;;;;;;16.15;7.63;;;;;;;;;;5077703;28;20614;-68
2023/07/06 08:41:39;;;;;;;14.93;7.15;;;;;;;;;;5070320;28;20240;-68
2023/07/06 08:44:08;;;;;;;13.05;7.70;;;;;;;;;;5079710;28;20181;-67
2023/07/06 08:46:41;;;;;;;14.38;6.90;;;;;;;;;;5080212;28;20315;-69
2023/07/06 08:49:22;;;;;;;13.10;6.45;;;;;;;;;;5075417;28;20587;-69
2023/07/06 08:51:49;;;;;;;11.93;6.72;;;;;;;;;;5082997;28;20196;-67
2023/07/06 08:54:23;;;;;;;10.65;6.60;;;;;;;;;;5073822;28;20726;-66
2023/07/06 08:56:50;;;;;;;10.45;6.10;;;;;;;;;;5080815;28;20214;-68
2023/07/06 08:59:41;;;;;;;11.80;7.03;;;;;;;;;;5067884;28;20197;-67
2023/07/06 09:02:18;;;;;;;10.07;6.13;;;;;;;;;;5079290;28;20216;-68
2023/07/06 09:04:46;;;;;;;13.13;6.88;;;;;;;;;;5067679;28;20192;-67
2023/07/06 09:07:14;;;;;;;12.65;6.97;;;;;;;;;;5066934;28;20195;-68
2023/07/06 09:09:42;;;;;;;13.82;6.80;;;;;;;;;;5078947;28;20496;-67
2023/07/06 09:12:24;;;;;;;9.90;6.38;;;;;;;;;;5078618;28;20231;-67
2023/07/06 09:14:51;;;;;;;12.45;6.93;;;;;;;;;;5072120;28;20220;-69
2023/07/06 09:17:17;;;;;;;12.35;6.35;;;;;;;;;;5069939;28;20200;-67
2023/07/06 09:19:44;;;;;;;12.63;7.05;;;;;;;;;;5075238;28;20670;-67
2023/07/06 09:22:10;;;;;;;14.35;7.68;;;;;;;;;;5069439;28;20534;-70
2023/07/06 09:24:36;;;;;;;16.13;7.85;;;;;;;;;;5079825;28;20211;-67
2023/07/06 09:27:09;;;;;;;16.90;8.40;;;;;;;;;;5075353;28;20717;-70
2023/07/06 09:29:37;;;;;;;13.35;7.68;;;;;;;;;;5075301;28;20192;-67
2023/07/06 09:32:22;;;;;;;14.43;8.55;;;;;;;;;;5076257;28;20253;-67
2023/07/06 09:34:55;;;;;;;13.23;7.78;;;;;;;;;;5081589;28;20223;-71
2023/07/06 09:37:22;;;;;;;14.48;7.97;;;;;;;;;;5087807;28;20192;-67
2023/07/06 09:40:03;;;;;;;11.40;7.00;;;;;;;;;;5081384;28;20273;-66
2023/07/06 09:42:29;;;;;;;10.85;6.80;;;;;;;;;;5077016;28;20671;-68
2023/07/06 09:44:55;;;;;;;13.88;7.25;;;;;;;;;;5082437;28;20215;-67
2023/07/06 09:47:22;;;;;;;15.23;7.28;;;;;;;;;;5087117;28;20241;-67
2023/07/06 09:49:53;;;;;;;12.93;7.35;;;;;;;;;;5082750;28;20215;-71
2023/07/06 09:52:19;;;;;;;10.73;6.85;;;;;;;;;;5075160;28;20534;-67
2023/07/06 09:55:08;;;;;;;12.60;6.72;;;;;;;;;;5082123;28;20659;-70
2023/07/06 09:57:35;;;;;;;15.65;7.50;;;;;;;;;;5067752;28;20600;-67
2023/07/06 10:00:02;;;;;;;15.40;7.28;;;;;;;;;;5078501;28;20199;-66
2023/07/06 10:02:28;;;;;;;18.48;8.15;;;;;;;;;;5077675;28;20230;-66
2023/07/06 10:05:12;;;;;;;16.13;7.97;;;;;;;;;;5089022;28;20608;-67
2023/07/06 10:07:53;;;;;;;14.50;8.23;;;;;;;;;;5073676;28;20662;-66
2023/07/06 10:10:38;;;;;;;12.43;6.95;;;;;;;;;;5090137;28;20403;-67
2023/07/06 10:13:11;;;;;;;11.90;6.75;;;;;;;;;;5091479;28;20212;-67
2023/07/06 10:16:06;;;;;;;17.77;8.00;;;;;;;;;;5077683;28;20325;-68
2023/07/06 10:18:49;;;;;;;16.27;7.90;;;;;;;;;;5072602;28;20188;-67
2023/07/06 10:21:33;;;;;;;13.52;8.23;;;;;;;;;;5072902;28;20557;-66
2023/07/06 10:24:30;;;;;;;12.57;7.25;;;;;;;;;;5082310;28;20195;-67
2023/07/06 10:26:59;;;;;;;16.80;7.25;;;;;;;;;;5080050;28;20188;-68
2023/07/06 10:29:41;;;;;;;14.93;7.15;;;;;;;;;;5079502;28;20193;-65
2023/07/06 10:32:12;;;;;;;11.15;7.32;;;;;;;;;;5070949;28;20177;-70
2023/07/06 10:34:48;;;;;;;15.93;7.10;;;;;;;;;;5080399;28;20257;-70
2023/07/06 10:37:16;;;;;;;12.02;6.47;;;;;;;;;;5076697;28;20252;-69
2023/07/06 10:39:44;;;;;;;15.48;7.88;;;;;;;;;;5078304;28;20211;-71
2023/07/06 10:42:25;;;;;;;15.52;7.65;;;;;;;;;;5071525;28;20291;-67
2023/07/06 10:44:58;;;;;;;13.48;7.03;;;;;;;;;;5073111;28;20310;-70
2023/07/06 10:47:41;;;;;;;13.82;8.15;;;;;;;;;;5081388;28;20196;-67
2023/07/06 10:50:23;;;;;;;12.80;7.00;;;;;;;;;;5076639;28;20276;-66
2023/07/06 10:52:55;;;;;;;14.07;6.95;;;;;;;;;;5074609;28;20208;-67
2023/07/06 10:55:24;;;;;;;11.05;7.53;;;;;;;;;;5075263;28;20196;-66
2023/07/06 10:57:52;;;;;;;12.20;6.18;;;;;;;;;;5072545;28;20180;-66
2023/07/06 11:00:29;;;;;;;14.75;6.95;;;;;;;;;;5081374;28;20263;-67
2023/07/06 11:02:56;;;;;;;15.55;6.43;;;;;;;;;;5081836;28;20650;-66
2023/07/06 11:05:29;;;;;;;13.88;6.90;;;;;;;;;;5083749;28;20245;-66
2023/07/06 11:07:57;;;;;;;13.80;7.50;;;;;;;;;;5073995;28;20188;-68
2023/07/06 11:10:27;;;;;;;13.52;6.90;;;;;;;;;;5082247;28;20206;-69
2023/07/06 11:12:58;;;;;;;9.38;6.45;;;;;;;;;;5073168;28;20216;-67
2023/07/06 11:15:39;;;;;;;10.73;6.50;;;;;;;;;;5074291;28;20538;-70
2023/07/06 11:18:44;;;;;;;10.25;5.93;;;;;;;;;;5075078;28;20188;-66
2023/07/06 11:21:28;;;;;;;10.75;5.82;;;;;;;;;;5084685;28;20187;-65
2023/07/06 11:23:58;;;;;;;12.18;6.82;;;;;;;;;;5083127;28;20227;-69
2023/07/06 11:26:45;;;;;;;9.75;6.45;;;;;;;;;;5083710;28;20196;-70
2023/07/06 11:29:10;;;;;;;8.93;5.72;;;;;;;;;;5074698;28;20243;-66
2023/07/06 11:32:03;;;;;;;9.10;5.82;;;;;;;;;;5083217;28;20664;-66
2023/07/06 11:35:07;;;;;;;8.38;5.22;;;;;;;;;;5072902;28;20208;-67
2023/07/06 11:37:57;;;;;;;11.57;5.47;;;;;;;;;;5070878;28;20196;-67
2023/07/06 11:41:00;;;;;;;8.75;4.95;;;;;;;;;;5078685;28;20299;-68
2023/07/06 11:43:51;;;;;;;13.00;6.60;;;;;;;;;;5080590;28;20242;-66
2023/07/06 11:46:47;;;;;;;7.70;4.95;;;;;;;;;;5086164;28;20192;-66
2023/07/06 11:49:29;;;;;;;10.68;5.97;;;;;;;;;;5069696;28;20196;-67
2023/07/06 11:51:58;;;;;;;11.27;5.38;;;;;;;;;;5073104;28;20527;-67
2023/07/06 11:54:43;;;;;;;6.93;4.65;;;;;;;;;;5086461;28;20188;-68
2023/07/06 11:57:44;;;;;;;6.10;4.35;;;;;;;;;;5076549;28;20220;-65
2023/07/06 12:03:13;;;;;;;10.57;5.45;;;;;;;;;;5077299;28;20200;-69
2023/07/06 12:05:49;;;;;;;11.88;5.15;;;;;;;;;;5087968;28;20180;-66
2023/07/06 12:08:19;;;;;;;9.82;4.60;;;;;;;;;;5083116;28;20195;-69
2023/07/06 12:10:50;;;;;;;11.82;4.78;;;;;;;;;;5084324;28;20210;-66
2023/07/06 12:13:25;;;;;;;10.40;4.45;;;;;;;;;;5070726;28;20215;-66
2023/07/06 12:15:56;;;;;;;10.43;5.15;;;;;;;;;;5080783;28;20218;-66
2023/07/06 12:18:23;;;;;;;8.68;4.57;;;;;;;;;;5070425;28;20264;-67
2023/07/06 12:20:53;;;;;;;7.25;4.30;;;;;;;;;;5081192;28;20200;-68
2023/07/06 12:23:18;;;;;;;7.43;4.32;;;;;;;;;;5066867;28;20207;-67
2023/07/06 12:25:44;;;;;;;7.63;4.72;;;;;;;;;;5078020;28;20192;-69
2023/07/06 12:28:12;;;;;;;9.40;4.22;;;;;;;;;;5086965;28;20183;-66
2023/07/06 12:30:39;;;;;;;6.82;4.25;;;;;;;;;;5087572;28;20191;-69
2023/07/06 12:33:08;;;;;;;6.38;3.70;;;;;;;;;;5084545;28;20204;-70
2023/07/06 12:35:34;;;;;;;7.00;3.83;;;;;;;;;;5074943;28;20192;-66
2023/07/06 12:38:03;;;;;;;7.82;5.07;;;;;;;;;;5082618;28;20675;-67
2023/07/06 12:40:32;;;;;;;7.70;5.10;;;;;;;;;;5087024;28;20283;-69
2023/07/06 12:42:57;;;;;;;9.18;5.03;;;;;;;;;;5087419;28;20227;-69
2023/07/06 12:45:23;;;;;;;11.32;4.45;;;;;;;;;;5068478;28;20563;-66
2023/07/06 12:48:00;;;;;;;10.40;5.25;;;;;;;;;;5080337;28;20752;-65
2023/07/06 12:50:35;;;;;;;7.13;4.45;;;;;;;;;;5081868;28;20589;-65
2023/07/06 12:53:14;;;;;;;11.20;4.88;;;;;;;;;;5083978;28;20693;-66
2023/07/06 12:55:41;;;;;;;9.90;4.20;;;;;;;;;;5082378;28;20327;-67
2023/07/06 12:58:24;;;;;;;6.28;3.67;;;;;;;;;;5085511;28;20245;-66
2023/07/06 13:00:50;;;;;;;4.32;3.40;;;;;;;;;;5080198;28;20261;-66
2023/07/06 13:03:16;;;;;;;4.93;2.85;;;;;;;;;;5074713;28;20172;-66
2023/07/06 13:05:52;;;;;;;10.07;4.07;;;;;;;;;;5086838;28;20202;-66
2023/07/06 13:08:20;;;;;;;9.07;4.22;;;;;;;;;;5075004;28;20256;-68
2023/07/06 13:11:00;;;;;;;7.05;3.97;;;;;;;;;;5080869;28;20607;-69
2023/07/06 13:13:26;;;;;;;7.65;3.30;;;;;;;;;;5076592;28;20749;-68
2023/07/06 13:16:01;;;;;;;6.70;3.20;;;;;;;;;;5082892;28;20194;-66
2023/07/06 13:18:27;;;;;;;4.43;2.97;;;;;;;;;;5087480;28;20196;-66
2023/07/06 13:20:53;;;;;;;4.97;2.70;;;;;;;;;;5075016;28;20188;-66
2023/07/06 13:23:20;;;;;;;7.55;3.13;;;;;;;;;;5081275;28;20219;-70
2023/07/06 13:25:49;;;;;;;8.82;3.13;;;;;;;;;;5076864;28;20287;-68
2023/07/06 13:28:20;;;;;;;7.88;3.60;;;;;;;;;;5082678;28;20649;-68
2023/07/06 13:30:46;;;;;;;7.65;3.30;;;;;;;;;;5083090;28;20183;-67
2023/07/06 13:33:12;;;;;;;6.05;3.00;;;;;;;;;;5078899;28;20331;-71
2023/07/06 13:35:39;;;;;;;9.23;3.65;;;;;;;;;;5085651;28;20275;-67
2023/07/06 13:38:04;;;;;;;6.55;3.17;;;;;;;;;;5088083;28;20210;-67
2023/07/06 13:40:31;;;;;;;6.68;3.50;;;;;;;;;;5080468;28;20594;-71
2023/07/06 13:42:59;;;;;;;8.95;3.40;;;;;;;;;;5088461;28;20264;-67
2023/07/06 13:45:34;;;;;;;5.95;3.38;;;;;;;;;;5083445;28;20184;-70
2023/07/06 13:47:59;;;;;;;8.93;3.42;;;;;;;;;;5080941;28;20605;-67
2023/07/06 13:50:25;;;;;;;7.80;3.58;;;;;;;;;;5089158;28;20227;-67
2023/07/06 13:52:52;;;;;;;7.40;3.75;;;;;;;;;;5091239;28;20223;-68
2023/07/06 13:55:24;;;;;;;6.30;3.80;;;;;;;;;;5088397;28;20208;-67
2023/07/06 13:57:50;;;;;;;6.50;3.33;;;;;;;;;;5090257;28;20184;-66
2023/07/06 14:00:16;;;;;;;8.77;3.47;;;;;;;;;;5087167;28;20196;-69
2023/07/06 14:02:48;;;;;;;6.72;3.58;;;;;;;;;;5084927;28;20502;-67
2023/07/06 14:05:15;;;;;;;7.63;3.70;;;;;;;;;;5086042;28;20192;-66
2023/07/06 14:07:41;;;;;;;7.38;3.55;;;;;;;;;;5076045;28;20280;-66
2023/07/06 14:10:08;;;;;;;6.65;3.80;;;;;;;;;;5073258;28;20275;-66
2023/07/06 14:12:33;;;;;;;9.95;3.67;;;;;;;;;;5086886;28;20966;-67
2023/07/06 14:14:59;;;;;;;6.57;3.85;;;;;;;;;;5083121;28;20267;-66
2023/07/06 14:17:24;;;;;;;9.15;3.97;;;;;;;;;;5085071;28;20627;-67
2023/07/06 14:19:51;;;;;;;8.43;4.20;;;;;;;;;;5086573;28;20188;-67
2023/07/06 14:22:17;;;;;;;5.78;3.72;;;;;;;;;;5082054;28;20242;-67
2023/07/06 14:24:43;;;;;;;10.88;4.13;;;;;;;;;;5084786;28;20200;-69
2023/07/06 14:27:10;;;;;;;11.38;3.83;;;;;;;;;;5083723;28;20219;-69
2023/07/06 14:29:36;;;;;;;13.40;4.40;;;;;;;;;;5086503;28;20517;-68
2023/07/06 14:32:01;;;;;;;11.20;4.28;;;;;;;;;;5084275;28;20188;-67
2023/07/06 14:34:26;;;;;;;12.23;4.57;;;;;;;;;;5084395;28;20204;-69
2023/07/06 14:36:52;;;;;;;9.85;4.88;;;;;;;;;;5084726;28;20192;-69
2023/07/06 14:39:17;;;;;;;13.07;5.22;;;;;;;;;;5087303;28;20195;-68
2023/07/06 14:41:43;;;;;;;12.05;5.40;;;;;;;;;;5084522;28;20582;-68
2023/07/06 14:44:09;;;;;;;9.90;5.07;;;;;;;;;;5080402;28;20192;-68
2023/07/06 14:46:35;;;;;;;10.57;5.13;;;;;;;;;;5081062;28;20562;-68